createdAt,value
2017-09-16T00:01:02.310Z,4.33
2017-09-16T00:04:03.570Z,4.13
2017-09-16T00:07:04.853Z,4.70
2017-09-16T00:10:06.134Z,3.37
2017-09-16T00:13:08.189Z,3.83
2017-09-16T00:16:09.466Z,5.17
2017-09-16T00:19:10.797Z,4.40
2017-09-16T00:22:12.814Z,4.77
2017-09-16T00:25:14.094Z,4.83
2017-09-16T00:28:15.397Z,5.00
2017-09-16T00:31:16.693Z,5.13
2017-09-16T00:34:18.201Z,5.30
2017-09-16T00:37:19.502Z,5.43
2017-09-16T00:40:20.790Z,4.93
2017-09-16T00:43:22.090Z,4.50
2017-09-16T00:46:23.398Z,4.70
2017-09-16T00:49:24.709Z,5.77
2017-09-16T00:52:26.769Z,5.17
2017-09-16T00:55:28.833Z,4.77
2017-09-16T00:58:30.174Z,5.93
2017-09-16T01:01:31.466Z,5.00
2017-09-16T01:04:39.762Z,5.13
2017-09-16T01:07:41.832Z,5.43
2017-09-16T01:10:43.888Z,5.23
2017-09-16T01:13:46.083Z,5.63
2017-09-16T01:16:47.365Z,5.83
2017-09-16T01:19:48.698Z,5.73
2017-09-16T01:22:50.022Z,5.47
2017-09-16T01:25:51.397Z,5.70
2017-09-16T01:28:52.725Z,5.30
2017-09-16T01:31:54.053Z,5.30
2017-09-16T01:34:56.242Z,5.30
2017-09-16T01:37:57.573Z,6.10
2017-09-16T01:40:59.981Z,5.40
2017-09-16T01:44:01.249Z,6.03
2017-09-16T01:47:02.539Z,6.43
2017-09-16T01:50:04.545Z,6.73
2017-09-16T01:53:05.830Z,6.67
2017-09-16T01:56:07.105Z,6.50
2017-09-16T01:59:09.117Z,7.23
2017-09-16T02:02:10.406Z,6.60
2017-09-16T02:05:11.699Z,7.57
2017-09-16T02:08:13.105Z,6.90
2017-09-16T02:11:14.373Z,8.50
2017-09-16T02:14:15.693Z,6.73
2017-09-16T02:17:16.967Z,7.40
2017-09-16T02:20:18.279Z,7.30
2017-09-16T02:23:20.298Z,7.37
2017-09-16T02:26:22.354Z,7.70
2017-09-16T02:29:23.658Z,8.77
2017-09-16T02:32:25.700Z,8.00
2017-09-16T02:35:27.722Z,7.50
2017-09-16T02:38:29.017Z,7.87
2017-09-16T02:41:30.341Z,6.80
2017-09-16T02:44:31.633Z,7.23
2017-09-16T02:47:34.038Z,8.07
2017-09-16T02:50:35.310Z,9.93
2017-09-16T02:53:36.920Z,7.43
2017-09-16T02:56:38.930Z,7.83
2017-09-16T02:59:40.283Z,7.80
2017-09-16T03:02:41.549Z,9.10
2017-09-16T03:05:42.838Z,7.77
2017-09-16T03:08:44.109Z,7.73
2017-09-16T03:11:45.878Z,9.50
2017-09-16T03:14:47.521Z,7.90
2017-09-16T03:17:48.837Z,7.80
2017-09-16T03:20:50.834Z,8.63
2017-09-16T03:23:52.125Z,9.07
2017-09-16T03:26:53.399Z,8.93
2017-09-16T03:29:55.465Z,8.43
2017-09-16T03:32:57.457Z,7.90
2017-09-16T03:35:58.759Z,8.53
2017-09-16T03:39:00.021Z,8.20
2017-09-16T03:42:02.061Z,8.10
2017-09-16T03:45:03.357Z,9.20
2017-09-16T03:48:04.645Z,7.70
2017-09-16T03:51:05.918Z,8.87
2017-09-16T03:54:07.218Z,8.23
2017-09-16T03:57:08.981Z,8.53
2017-09-16T04:00:10.269Z,9.10
2017-09-16T04:03:11.569Z,8.10
2017-09-16T04:06:12.849Z,7.80
2017-09-16T04:09:14.158Z,8.70
2017-09-16T04:12:15.433Z,7.70
2017-09-16T04:15:16.778Z,7.07
2017-09-16T04:18:18.046Z,7.60
2017-09-16T04:21:19.361Z,8.83
2017-09-16T04:24:20.825Z,9.40
2017-09-16T04:27:22.098Z,8.50
2017-09-16T04:30:23.553Z,7.93
2017-09-16T04:33:24.824Z,7.37
2017-09-16T04:36:26.130Z,8.57
2017-09-16T04:39:27.405Z,8.70
2017-09-16T04:42:28.738Z,8.00
2017-09-16T04:45:30.058Z,9.17
2017-09-16T04:48:31.377Z,8.77
2017-09-16T04:51:32.678Z,9.00
2017-09-16T04:54:33.975Z,8.33
2017-09-16T04:57:36.137Z,8.63
2017-09-16T05:00:37.418Z,8.87
2017-09-16T05:03:38.721Z,9.17
2017-09-16T05:06:39.970Z,8.70
2017-09-16T05:09:41.274Z,8.60
2017-09-16T05:12:42.554Z,8.53
2017-09-16T05:15:43.842Z,12.20
2017-09-16T05:18:45.862Z,8.13
2017-09-16T05:21:47.157Z,8.00
2017-09-16T05:24:49.175Z,7.70
2017-09-16T05:27:50.470Z,8.47
2017-09-16T05:30:52.566Z,8.27
2017-09-16T05:33:53.875Z,8.03
2017-09-16T05:36:55.134Z,7.37
2017-09-16T05:39:57.160Z,7.53
2017-09-16T05:42:58.450Z,7.80
2017-09-16T05:46:00.477Z,7.07
2017-09-16T05:49:02.109Z,7.43
2017-09-16T05:52:03.366Z,7.87
2017-09-16T05:55:04.679Z,6.90
2017-09-16T05:58:06.681Z,7.37
2017-09-16T06:01:08.230Z,6.77
2017-09-16T06:04:16.534Z,7.10
2017-09-16T06:07:17.829Z,7.40
2017-09-16T06:10:19.119Z,6.87
2017-09-16T06:13:20.418Z,7.23
2017-09-16T06:16:21.723Z,8.00
2017-09-16T06:19:23.030Z,7.73
2017-09-16T06:22:24.327Z,7.90
2017-09-16T06:25:25.602Z,7.37
2017-09-16T06:28:26.930Z,7.70
2017-09-16T06:31:28.234Z,8.80
2017-09-16T06:34:29.519Z,7.50
2017-09-16T06:37:30.798Z,7.80
2017-09-16T06:40:32.114Z,7.30
2017-09-16T06:43:33.381Z,7.50
2017-09-16T06:46:34.694Z,8.47
2017-09-16T06:49:36.710Z,7.50
2017-09-16T06:52:38.758Z,7.77
2017-09-16T06:55:40.016Z,6.97
2017-09-16T06:58:42.342Z,6.80
2017-09-16T07:01:44.371Z,7.90
2017-09-16T07:04:45.738Z,6.90
2017-09-16T07:07:47.027Z,6.77
2017-09-16T07:10:48.341Z,7.57
2017-09-16T07:13:49.618Z,7.20
2017-09-16T07:16:50.922Z,6.43
2017-09-16T07:19:52.182Z,6.37
2017-09-16T07:22:53.482Z,5.17
2017-09-16T07:25:54.746Z,7.10
2017-09-16T07:28:56.785Z,7.00
2017-09-16T07:31:58.278Z,5.80
2017-09-16T07:34:59.561Z,6.47
2017-09-16T07:38:01.098Z,5.70
2017-09-16T07:41:02.436Z,5.80
2017-09-16T07:44:03.770Z,6.23
2017-09-16T07:47:05.770Z,4.20
2017-09-16T07:50:07.066Z,6.10
2017-09-16T07:53:08.355Z,6.40
2017-09-16T07:56:09.657Z,5.37
2017-09-16T07:59:11.046Z,4.50
2017-09-16T08:02:12.340Z,4.63
2017-09-16T08:05:13.725Z,5.20
2017-09-16T08:08:15.836Z,4.80
2017-09-16T08:11:17.183Z,5.07
2017-09-16T08:14:18.470Z,4.50
2017-09-16T08:17:19.764Z,4.77
2017-09-16T08:20:21.130Z,5.13
2017-09-16T08:23:22.426Z,4.40
2017-09-16T08:26:23.872Z,4.63
2017-09-16T08:29:25.146Z,4.30
2017-09-16T08:32:27.458Z,5.00
2017-09-16T08:35:28.713Z,51.97
2017-09-16T08:38:30.001Z,20.20
2017-09-16T08:41:31.262Z,5.60
2017-09-16T08:44:33.277Z,4.80
2017-09-16T08:47:36.895Z,5.13
2017-09-16T08:50:38.283Z,4.03
2017-09-16T08:53:40.902Z,4.60
2017-09-16T08:56:42.242Z,4.27
2017-09-16T08:59:43.649Z,5.43
2017-09-16T09:02:44.938Z,5.00
2017-09-16T09:05:46.749Z,4.00
2017-09-16T09:08:48.006Z,4.37
2017-09-16T09:11:49.295Z,4.17
2017-09-16T09:14:50.588Z,5.23
2017-09-16T09:17:51.989Z,4.20
2017-09-16T09:20:53.251Z,3.83
2017-09-16T09:23:54.551Z,4.63
2017-09-16T09:26:55.875Z,4.03
2017-09-16T09:29:57.165Z,4.17
2017-09-16T09:32:59.212Z,3.60
2017-09-16T09:36:00.539Z,3.30
2017-09-16T09:39:02.010Z,3.27
2017-09-16T09:42:03.287Z,3.97
2017-09-16T09:45:05.921Z,3.40
2017-09-16T09:48:07.234Z,2.93
2017-09-16T09:51:08.516Z,3.00
2017-09-16T09:54:09.795Z,2.90
2017-09-16T09:57:11.087Z,3.00
2017-09-16T10:00:12.358Z,3.20
2017-09-16T10:03:13.670Z,3.17
2017-09-16T10:06:14.954Z,2.67
2017-09-16T10:09:16.266Z,2.40
2017-09-16T10:12:18.460Z,2.43
2017-09-16T10:15:19.726Z,3.23
2017-09-16T10:18:21.041Z,3.00
2017-09-16T10:21:22.307Z,2.50
2017-09-16T10:24:23.615Z,2.60
2017-09-16T10:27:25.639Z,2.67
2017-09-16T10:30:27.078Z,2.40
2017-09-16T10:33:28.335Z,2.60
2017-09-16T10:36:29.649Z,2.60
2017-09-16T10:39:30.948Z,1.70
2017-09-16T10:42:32.272Z,2.60
2017-09-16T10:45:33.674Z,2.00
2017-09-16T10:48:35.682Z,2.53
2017-09-16T10:51:37.006Z,2.37
2017-09-16T10:54:38.308Z,2.53
2017-09-16T10:57:39.592Z,2.10
2017-09-16T11:00:41.618Z,2.00
2017-09-16T11:03:42.943Z,2.80
2017-09-16T11:06:44.233Z,2.67
2017-09-16T11:09:45.535Z,2.47
2017-09-16T11:12:46.933Z,1.80
2017-09-16T11:15:48.222Z,2.70
2017-09-16T11:18:49.552Z,2.03
2017-09-16T11:21:51.584Z,2.40
2017-09-16T11:24:52.886Z,1.93
2017-09-16T11:27:54.205Z,2.03
2017-09-16T11:30:55.560Z,1.87
2017-09-16T11:33:57.580Z,2.10
2017-09-16T11:36:58.900Z,1.83
2017-09-16T11:40:00.194Z,1.80
2017-09-16T11:43:01.503Z,2.33
2017-09-16T11:46:02.781Z,1.77
2017-09-16T11:49:04.081Z,1.60
2017-09-16T11:52:06.243Z,1.20
2017-09-16T11:55:08.262Z,1.40
2017-09-16T11:58:09.675Z,2.40
2017-09-16T12:01:10.971Z,1.50
2017-09-16T12:04:12.271Z,2.07
2017-09-16T12:07:14.279Z,1.53
2017-09-16T12:10:15.586Z,2.20
2017-09-16T12:13:16.882Z,1.70
2017-09-16T12:16:18.287Z,1.60
2017-09-16T12:19:20.720Z,1.97
2017-09-16T12:22:22.802Z,1.93
2017-09-16T12:25:24.059Z,1.30
2017-09-16T12:28:26.105Z,1.70
2017-09-16T12:31:27.411Z,1.80
2017-09-16T12:34:28.706Z,2.00
2017-09-16T12:37:29.983Z,1.47
2017-09-16T12:40:32.068Z,2.00
2017-09-16T12:43:34.107Z,1.40
2017-09-16T12:46:36.147Z,1.40
2017-09-16T12:49:37.562Z,1.43
2017-09-16T12:52:38.827Z,1.50
2017-09-16T12:55:40.158Z,1.67
2017-09-16T12:58:41.422Z,1.60
2017-09-16T13:01:42.714Z,2.27
2017-09-16T13:04:43.969Z,1.63
2017-09-16T13:07:46.024Z,4.00
2017-09-16T13:10:47.323Z,1.60
2017-09-16T13:13:48.624Z,1.60
2017-09-16T13:16:49.940Z,1.33
2017-09-16T13:19:51.226Z,1.97
2017-09-16T13:22:52.816Z,1.60
2017-09-16T13:25:54.879Z,1.47
2017-09-16T13:28:56.236Z,1.90
2017-09-16T13:31:57.542Z,1.87
2017-09-16T13:34:58.866Z,1.70
2017-09-16T13:38:00.197Z,1.73
2017-09-16T13:41:02.271Z,1.70
2017-09-16T13:44:03.703Z,1.63
2017-09-16T13:47:05.003Z,1.20
2017-09-16T13:50:06.530Z,1.40
2017-09-16T13:53:07.800Z,2.27
2017-09-16T13:56:09.858Z,2.17
2017-09-16T13:59:11.163Z,1.73
2017-09-16T14:02:12.539Z,1.63
2017-09-16T14:05:13.839Z,1.20
2017-09-16T14:08:15.200Z,0.90
2017-09-16T14:11:17.356Z,2.30
2017-09-16T14:14:18.635Z,1.40
2017-09-16T14:17:19.946Z,1.40
2017-09-16T14:20:21.290Z,1.20
2017-09-16T14:23:23.347Z,1.07
2017-09-16T14:26:24.659Z,1.60
2017-09-16T14:29:25.967Z,1.17
2017-09-16T14:32:27.390Z,1.40
2017-09-16T14:35:28.747Z,1.10
2017-09-16T14:38:30.050Z,1.10
2017-09-16T14:41:31.377Z,1.60
2017-09-16T14:44:32.654Z,1.47
2017-09-16T14:47:33.998Z,1.57
2017-09-16T14:50:35.284Z,1.60
2017-09-16T14:53:36.583Z,1.00
2017-09-16T14:56:37.987Z,1.20
2017-09-16T14:59:39.289Z,1.30
2017-09-16T15:02:40.628Z,1.57
2017-09-16T15:05:42.639Z,1.40
2017-09-16T15:08:43.971Z,1.30
2017-09-16T15:11:45.995Z,1.20
2017-09-16T15:14:47.307Z,1.07
2017-09-16T15:17:48.584Z,1.13
2017-09-16T15:20:50.627Z,1.40
2017-09-16T15:23:51.911Z,1.20
2017-09-16T15:26:53.962Z,1.20
2017-09-16T15:29:55.371Z,1.60
2017-09-16T15:32:56.662Z,1.10
2017-09-16T15:35:57.977Z,0.97
2017-09-16T15:38:59.278Z,1.40
2017-09-16T15:42:01.343Z,1.27
2017-09-16T15:45:03.371Z,1.07
2017-09-16T15:48:04.688Z,1.60
2017-09-16T15:51:06.783Z,1.90
2017-09-16T15:54:08.083Z,1.57
2017-09-16T15:57:09.374Z,1.50
2017-09-16T16:00:10.665Z,1.20
2017-09-16T16:03:11.976Z,1.00
2017-09-16T16:06:13.270Z,0.90
2017-09-16T16:09:14.555Z,9.73
2017-09-16T16:12:15.911Z,1.77
2017-09-16T16:15:17.179Z,1.43
2017-09-16T16:18:18.570Z,1.20
2017-09-16T16:21:19.919Z,0.90
2017-09-16T16:24:21.235Z,1.80
2017-09-16T16:27:22.535Z,1.53
2017-09-16T16:30:24.627Z,1.10
2017-09-16T16:33:26.008Z,1.20
2017-09-16T16:36:27.319Z,1.43
2017-09-16T16:39:29.493Z,1.50
2017-09-16T16:42:30.914Z,1.70
2017-09-16T16:45:32.418Z,1.27
2017-09-16T16:48:33.859Z,1.67
2017-09-16T16:51:35.175Z,1.60
2017-09-16T16:54:37.216Z,1.50
2017-09-16T16:57:38.922Z,1.53
2017-09-16T17:00:40.290Z,1.13
2017-09-16T17:03:41.587Z,1.20
2017-09-16T17:06:43.040Z,1.40
2017-09-16T17:09:50.469Z,1.17
2017-09-16T17:12:51.886Z,2.37
2017-09-16T17:15:53.190Z,1.70
2017-09-16T17:18:55.670Z,1.40
2017-09-16T17:21:56.990Z,1.40
2017-09-16T17:24:59.210Z,1.70
2017-09-16T17:28:00.520Z,1.40
2017-09-16T17:31:01.959Z,2.07
2017-09-16T17:34:04.048Z,1.40
2017-09-16T17:37:05.419Z,1.97
2017-09-16T17:40:06.745Z,1.63
2017-09-16T17:43:08.245Z,1.40
2017-09-16T17:46:09.579Z,1.30
2017-09-16T17:49:11.011Z,1.77
2017-09-16T17:52:12.701Z,1.00
2017-09-16T17:55:14.097Z,1.00
2017-09-16T17:58:15.451Z,1.20
2017-09-16T18:01:16.806Z,1.90
2017-09-16T18:04:18.149Z,3.07
2017-09-16T18:07:19.468Z,1.00
2017-09-16T18:10:20.789Z,1.17
2017-09-16T18:13:23.084Z,1.30
2017-09-16T18:16:24.417Z,1.60
2017-09-16T18:19:27.087Z,1.30
2017-09-16T18:22:28.387Z,1.20
2017-09-16T18:25:30.207Z,1.60
2017-09-16T18:28:31.603Z,1.37
2017-09-16T18:31:33.101Z,1.30
2017-09-16T18:34:34.513Z,1.87
2017-09-16T18:37:36.920Z,1.50
2017-09-16T18:40:39.055Z,1.50
2017-09-16T18:43:41.224Z,1.63
2017-09-16T18:46:42.632Z,1.57
2017-09-16T18:49:44.004Z,1.90
2017-09-16T18:52:47.082Z,1.67
2017-09-16T18:55:48.708Z,2.00
2017-09-16T18:58:50.507Z,1.80
2017-09-16T19:01:52.589Z,2.30
2017-09-16T19:04:54.141Z,1.37
2017-09-16T19:07:55.498Z,1.80
2017-09-16T19:10:56.994Z,1.40
2017-09-16T19:13:59.893Z,1.80
2017-09-16T19:17:02.640Z,1.80
2017-09-16T19:20:04.029Z,2.37
2017-09-16T19:23:06.254Z,1.97
2017-09-16T19:26:07.615Z,1.67
2017-09-16T19:29:09.227Z,1.73
2017-09-16T19:32:10.910Z,2.27
2017-09-16T19:35:14.516Z,2.43
2017-09-16T19:38:15.832Z,2.00
2017-09-16T19:41:18.109Z,2.57
2017-09-16T19:44:21.207Z,2.03
2017-09-16T19:47:22.608Z,2.10
2017-09-16T19:50:24.893Z,3.70
2017-09-16T19:53:26.413Z,3.57
2017-09-16T19:56:28.996Z,1.97
2017-09-16T19:59:30.925Z,2.47
2017-09-16T20:02:32.507Z,3.17
2017-09-16T20:05:34.565Z,2.13
2017-09-16T20:08:36.664Z,1.97
2017-09-16T20:11:38.784Z,2.20
2017-09-16T20:14:40.492Z,2.37
2017-09-16T20:17:43.206Z,2.33
2017-09-16T20:20:44.557Z,2.30
2017-09-16T20:23:46.169Z,1.80
2017-09-16T20:26:48.921Z,2.67
2017-09-16T20:29:51.269Z,2.10
2017-09-16T20:32:54.747Z,2.53
2017-09-16T20:35:57.080Z,8.30
2017-09-16T20:38:59.390Z,2.83
2017-09-16T20:42:00.903Z,2.10
2017-09-16T20:45:04.188Z,2.50
2017-09-16T20:48:06.294Z,2.13
2017-09-16T20:51:09.121Z,2.37
2017-09-16T20:54:12.213Z,1.90
2017-09-16T20:57:13.674Z,1.93
2017-09-16T21:00:15.067Z,2.10
2017-09-16T21:03:16.468Z,1.97
2017-09-16T21:06:17.874Z,2.00
2017-09-16T21:09:19.682Z,2.30
2017-09-16T21:12:21.133Z,1.53
2017-09-16T21:15:22.551Z,1.83
2017-09-16T21:18:24.004Z,1.53
2017-09-16T21:21:26.880Z,1.63
2017-09-16T21:24:28.486Z,1.90
2017-09-16T21:27:29.902Z,1.90
2017-09-16T21:30:31.989Z,1.90
2017-09-16T21:33:34.297Z,1.93
2017-09-16T21:36:35.892Z,2.10
2017-09-16T21:39:38.043Z,2.00
2017-09-16T21:42:39.650Z,1.60
2017-09-16T21:45:41.025Z,1.97
2017-09-16T21:48:43.376Z,2.03
2017-09-16T21:51:45.260Z,2.03
2017-09-16T21:54:46.679Z,2.60
2017-09-16T21:57:48.060Z,2.50
2017-09-16T22:00:50.250Z,2.30
2017-09-16T22:03:51.861Z,2.00
2017-09-16T22:06:53.242Z,2.50
2017-09-16T22:09:54.756Z,2.33
2017-09-16T22:12:56.109Z,2.73
2017-09-16T22:15:57.533Z,2.83
2017-09-16T22:18:59.656Z,2.77
2017-09-16T22:22:01.056Z,2.77
2017-09-16T22:25:02.444Z,2.83
2017-09-16T22:28:04.631Z,3.30
2017-09-16T22:31:06.055Z,1.97
2017-09-16T22:34:07.576Z,2.43
2017-09-16T22:37:09.004Z,2.60
2017-09-16T22:40:10.427Z,2.40
2017-09-16T22:43:11.937Z,2.30
2017-09-16T22:46:13.348Z,2.23
2017-09-16T22:49:15.490Z,2.13
2017-09-16T22:52:17.111Z,2.00
2017-09-16T22:55:19.243Z,1.40
2017-09-16T22:58:20.783Z,1.60
2017-09-16T23:01:22.225Z,1.83
2017-09-16T23:04:24.357Z,1.20
2017-09-16T23:07:25.799Z,1.90
2017-09-16T23:10:27.319Z,1.80
2017-09-16T23:13:29.430Z,1.20
2017-09-16T23:16:30.829Z,1.63
2017-09-16T23:19:32.362Z,1.37
2017-09-16T23:22:33.763Z,1.50
2017-09-16T23:25:35.350Z,1.80
2017-09-16T23:31:45.592Z,1.77
2017-09-16T23:34:47.751Z,1.40
2017-09-16T23:37:49.165Z,1.53
2017-09-16T23:40:51.290Z,1.63
2017-09-16T23:43:52.759Z,1.40
2017-09-16T23:46:54.197Z,1.30
2017-09-16T23:49:56.328Z,1.57
2017-09-16T23:52:57.733Z,1.63
2017-09-16T23:55:59.255Z,2.10
